createdAt,value
2023-05-13T00:00:02.018Z,54.62
2023-05-13T00:01:02.004Z,55.43
2023-05-13T00:02:02.003Z,54.95
2023-05-13T00:03:02.058Z,54.30
2023-05-13T00:04:01.958Z,54.62
2023-05-13T00:05:01.968Z,54.46
2023-05-13T00:06:01.964Z,52.21
2023-05-13T00:07:02.007Z,44.63
2023-05-13T00:08:02.100Z,48.18
2023-05-13T00:09:01.970Z,36.58
2023-05-13T00:10:01.911Z,36.42
2023-05-13T00:11:01.907Z,37.71
2023-05-13T00:12:01.929Z,40.61
2023-05-13T00:13:01.907Z,37.71
2023-05-13T00:14:01.890Z,36.74
2023-05-13T00:15:01.936Z,36.74
2023-05-13T00:16:01.949Z,36.09
2023-05-13T00:17:01.896Z,36.09
2023-05-13T00:18:01.878Z,36.09
2023-05-13T00:19:02.935Z,38.03
2023-05-13T00:20:01.844Z,39.96
2023-05-13T00:21:01.870Z,36.90
2023-05-13T00:22:01.833Z,36.25
2023-05-13T00:23:01.812Z,38.51
2023-05-13T00:24:01.834Z,37.71
2023-05-13T00:25:01.821Z,37.54
2023-05-13T00:26:01.827Z,37.06
2023-05-13T00:27:02.792Z,36.90
2023-05-13T00:28:01.791Z,38.67
2023-05-13T00:29:01.800Z,41.73
2023-05-13T00:30:01.819Z,44.96
2023-05-13T00:31:01.785Z,37.87
2023-05-13T00:32:01.908Z,42.54
2023-05-13T00:33:01.763Z,38.51
2023-05-13T00:34:01.736Z,38.51
2023-05-13T00:35:01.771Z,38.19
2023-05-13T00:36:01.756Z,37.22
2023-05-13T00:37:01.709Z,38.19
2023-05-13T00:38:01.723Z,38.35
2023-05-13T00:39:01.701Z,38.19
2023-05-13T00:40:01.821Z,39.80
2023-05-13T00:41:01.681Z,44.96
2023-05-13T00:42:01.680Z,39.48
2023-05-13T00:43:01.667Z,37.87
2023-05-13T00:44:01.657Z,39.32
2023-05-13T00:45:01.674Z,38.35
2023-05-13T00:46:01.686Z,38.03
2023-05-13T00:47:01.649Z,38.03
2023-05-13T00:48:01.660Z,39.64
2023-05-13T00:49:01.647Z,41.09
2023-05-13T00:50:01.659Z,38.99
2023-05-13T00:51:01.609Z,43.67
2023-05-13T00:52:01.611Z,41.09
2023-05-13T00:53:01.594Z,45.12
2023-05-13T00:54:01.611Z,41.09
2023-05-13T00:55:01.579Z,41.41
2023-05-13T00:56:01.583Z,43.51
2023-05-13T00:57:01.569Z,45.44
2023-05-13T00:58:01.567Z,39.32
2023-05-13T00:59:01.575Z,38.99
2023-05-13T01:00:01.544Z,38.67
2023-05-13T01:01:01.542Z,41.57
2023-05-13T01:02:01.562Z,42.38
2023-05-13T01:03:01.570Z,43.34
2023-05-13T01:04:01.551Z,38.67
2023-05-13T01:05:01.503Z,38.51
2023-05-13T01:06:01.496Z,39.64
2023-05-13T01:07:01.491Z,40.77
2023-05-13T01:08:01.508Z,46.57
2023-05-13T01:09:01.505Z,39.48
2023-05-13T01:10:01.491Z,39.96
2023-05-13T01:11:01.457Z,41.41
2023-05-13T01:12:01.476Z,38.83
2023-05-13T01:13:01.480Z,40.77
2023-05-13T01:14:01.467Z,43.34
2023-05-13T01:15:01.459Z,43.67
2023-05-13T01:16:01.477Z,41.41
2023-05-13T01:17:01.488Z,41.89
2023-05-13T01:18:01.539Z,42.06
2023-05-13T01:19:01.424Z,40.77
2023-05-13T01:20:01.380Z,40.93
2023-05-13T01:21:01.393Z,39.48
2023-05-13T01:22:01.377Z,38.19
2023-05-13T01:23:01.397Z,41.73
2023-05-13T01:24:01.395Z,38.35
2023-05-13T01:25:01.359Z,39.16
2023-05-13T01:26:01.350Z,37.54
2023-05-13T01:27:01.363Z,40.12
2023-05-13T01:28:01.353Z,40.93
2023-05-13T01:29:01.316Z,39.32
2023-05-13T01:30:01.305Z,40.12
2023-05-13T01:31:01.316Z,42.06
2023-05-13T01:32:01.314Z,41.57
2023-05-13T01:33:01.367Z,39.80
2023-05-13T01:34:01.307Z,40.44
2023-05-13T01:35:01.294Z,53.66
2023-05-13T01:36:01.275Z,55.11
2023-05-13T01:37:01.278Z,57.69
2023-05-13T01:38:01.247Z,56.72
2023-05-13T01:39:02.238Z,56.24
2023-05-13T01:40:01.233Z,57.20
2023-05-13T01:41:01.257Z,55.75
2023-05-13T01:42:01.241Z,57.69
2023-05-13T01:43:01.205Z,56.72
2023-05-13T01:44:01.206Z,57.52
2023-05-13T01:45:01.203Z,58.49
2023-05-13T01:46:01.228Z,57.20
2023-05-13T01:47:01.193Z,56.56
2023-05-13T01:48:01.205Z,56.56
2023-05-13T01:49:01.170Z,56.07
2023-05-13T01:50:01.215Z,55.75
2023-05-13T01:51:01.179Z,56.40
2023-05-13T01:52:01.128Z,55.75
2023-05-13T01:53:02.132Z,53.50
2023-05-13T01:54:01.123Z,55.11
2023-05-13T01:55:01.114Z,53.33
2023-05-13T01:56:01.122Z,54.14
2023-05-13T01:57:01.093Z,53.82
2023-05-13T01:58:01.104Z,53.50
2023-05-13T01:59:01.090Z,42.06
2023-05-13T02:00:01.105Z,39.80
2023-05-13T02:01:01.106Z,38.67
2023-05-13T02:02:01.103Z,39.32
2023-05-13T02:03:01.165Z,40.12
2023-05-13T02:04:01.140Z,39.16
2023-05-13T02:05:01.067Z,40.12
2023-05-13T02:06:01.034Z,38.51
2023-05-13T02:07:01.030Z,38.99
2023-05-13T02:08:01.023Z,42.06
2023-05-13T02:09:01.005Z,41.25
2023-05-13T02:10:01.058Z,38.19
2023-05-13T02:11:01.020Z,40.44
2023-05-13T02:12:00.999Z,40.44
2023-05-13T02:13:00.976Z,43.18
2023-05-13T02:14:01.007Z,43.02
2023-05-13T02:15:00.976Z,54.62
2023-05-13T02:16:01.973Z,39.48
2023-05-13T02:17:00.950Z,39.96
2023-05-13T02:18:00.992Z,41.73
2023-05-13T02:19:00.951Z,39.80
2023-05-13T02:20:00.929Z,40.61
2023-05-13T02:21:00.952Z,40.93
2023-05-13T02:22:00.965Z,41.25
2023-05-13T02:23:00.898Z,38.35
2023-05-13T02:24:00.918Z,39.48
2023-05-13T02:25:00.889Z,38.19
2023-05-13T02:26:00.888Z,38.51
2023-05-13T02:27:00.881Z,38.35
2023-05-13T02:28:00.892Z,38.03
2023-05-13T02:29:00.889Z,38.51
2023-05-13T02:30:00.849Z,39.16
2023-05-13T02:31:00.840Z,38.99
2023-05-13T02:32:00.872Z,38.67
2023-05-13T02:33:00.890Z,38.51
2023-05-13T02:34:00.829Z,39.32
2023-05-13T02:35:00.801Z,39.96
2023-05-13T02:36:00.795Z,39.64
2023-05-13T02:37:00.795Z,53.98
2023-05-13T02:38:00.850Z,57.52
2023-05-13T02:39:00.785Z,57.85
2023-05-13T02:40:00.777Z,53.50
2023-05-13T02:41:00.761Z,53.66
2023-05-13T02:42:00.784Z,53.98
2023-05-13T02:43:00.785Z,53.98
2023-05-13T02:44:00.738Z,52.53
2023-05-13T02:45:00.752Z,52.69
2023-05-13T02:46:00.757Z,53.98
2023-05-13T02:47:00.749Z,53.50
2023-05-13T02:48:00.737Z,54.62
2023-05-13T02:49:00.712Z,54.62
2023-05-13T02:50:00.689Z,54.95
2023-05-13T02:51:00.685Z,54.95
2023-05-13T02:52:00.693Z,55.11
2023-05-13T02:53:00.666Z,55.59
2023-05-13T02:54:00.668Z,56.07
2023-05-13T02:55:00.688Z,56.07
2023-05-13T02:56:00.666Z,56.72
2023-05-13T02:57:00.655Z,56.56
2023-05-13T02:58:00.632Z,55.11
2023-05-13T02:59:00.616Z,52.85
2023-05-13T03:00:00.620Z,54.62
2023-05-13T03:01:00.719Z,55.75
2023-05-13T03:02:00.608Z,55.75
2023-05-13T03:03:00.722Z,56.07
2023-05-13T03:04:00.584Z,56.72
2023-05-13T03:05:00.585Z,56.40
2023-05-13T03:06:00.580Z,56.56
2023-05-13T03:07:00.580Z,55.75
2023-05-13T03:08:00.558Z,57.04
2023-05-13T03:09:00.540Z,57.52
2023-05-13T03:10:00.564Z,57.85
2023-05-13T03:11:00.549Z,55.91
2023-05-13T03:12:00.517Z,55.43
2023-05-13T03:13:00.508Z,55.43
2023-05-13T03:14:00.498Z,55.91
2023-05-13T03:15:00.545Z,56.07
2023-05-13T03:16:00.512Z,55.59
2023-05-13T03:17:00.481Z,55.43
2023-05-13T03:18:00.538Z,55.75
2023-05-13T03:19:00.537Z,55.75
2023-05-13T03:20:00.490Z,56.07
2023-05-13T03:21:00.455Z,55.59
2023-05-13T03:22:00.450Z,56.07
2023-05-13T03:23:00.426Z,56.07
2023-05-13T03:24:00.443Z,55.75
2023-05-13T03:25:00.457Z,56.07
2023-05-13T03:26:00.408Z,56.56
2023-05-13T03:27:00.415Z,56.40
2023-05-13T03:28:00.396Z,56.24
2023-05-13T03:29:00.408Z,55.75
2023-05-13T03:30:00.394Z,55.91
2023-05-13T03:31:00.409Z,55.75
2023-05-13T03:32:00.377Z,55.59
2023-05-13T03:33:00.404Z,56.07
2023-05-13T03:34:00.367Z,54.95
2023-05-13T03:35:00.337Z,54.30
2023-05-13T03:36:00.325Z,39.48
2023-05-13T03:37:00.317Z,38.83
2023-05-13T03:38:00.309Z,40.93
2023-05-13T03:39:00.341Z,41.57
2023-05-13T03:40:00.305Z,40.12
2023-05-13T03:41:00.299Z,41.25
2023-05-13T03:42:00.281Z,39.96
2023-05-13T03:43:00.297Z,39.80
2023-05-13T03:44:00.300Z,40.44
2023-05-13T03:45:00.251Z,40.44
2023-05-13T03:46:00.252Z,45.92
2023-05-13T03:47:00.266Z,40.61
2023-05-13T03:48:00.327Z,40.93
2023-05-13T03:49:01.224Z,39.80
2023-05-13T03:50:00.236Z,40.12
2023-05-13T03:51:00.205Z,40.77
2023-05-13T03:52:00.202Z,39.32
2023-05-13T03:53:00.217Z,38.83
2023-05-13T03:54:00.202Z,41.09
2023-05-13T03:55:00.184Z,42.86
2023-05-13T03:56:00.166Z,38.99
2023-05-13T03:57:00.201Z,39.96
2023-05-13T03:58:00.177Z,39.80
2023-05-13T03:59:00.152Z,40.93
2023-05-13T04:00:00.156Z,38.51
2023-05-13T04:01:00.134Z,38.35
2023-05-13T04:02:01.170Z,42.22
2023-05-13T04:03:00.142Z,42.22
2023-05-13T04:04:00.148Z,38.83
2023-05-13T04:05:00.177Z,43.02
2023-05-13T04:06:00.137Z,41.41
2023-05-13T04:07:00.116Z,41.25
2023-05-13T04:08:00.075Z,43.02
2023-05-13T04:09:00.076Z,39.96
2023-05-13T04:10:00.074Z,40.77
2023-05-13T04:11:00.056Z,39.16
2023-05-13T04:12:00.091Z,37.22
2023-05-13T04:13:00.043Z,38.19
2023-05-13T04:14:00.030Z,39.80
2023-05-13T04:15:00.032Z,41.09
2023-05-13T04:16:00.063Z,40.93
2023-05-13T04:17:00.145Z,41.57
2023-05-13T04:18:00.082Z,43.18
2023-05-13T04:19:00.045Z,41.89
2023-05-13T04:19:59.985Z,40.12
2023-05-13T04:21:00.004Z,40.77
2023-05-13T04:21:59.968Z,40.28
2023-05-13T04:22:59.968Z,46.89
2023-05-13T04:23:59.956Z,43.83
2023-05-13T04:24:59.955Z,46.57
2023-05-13T04:25:59.964Z,42.38
2023-05-13T04:27:01.433Z,40.77
2023-05-13T04:28:00.925Z,38.67
2023-05-13T04:28:59.916Z,40.77
2023-05-13T04:29:59.918Z,40.93
2023-05-13T04:30:59.932Z,43.02
2023-05-13T04:31:59.944Z,40.61
2023-05-13T04:32:59.924Z,41.25
2023-05-13T04:33:59.875Z,40.61
2023-05-13T04:34:59.898Z,38.83
2023-05-13T04:36:00.315Z,43.02
2023-05-13T04:36:59.841Z,44.63
2023-05-13T04:37:59.838Z,53.17
2023-05-13T04:38:59.832Z,53.17
2023-05-13T04:39:59.852Z,53.66
2023-05-13T04:40:59.811Z,51.88
2023-05-13T04:41:59.808Z,53.17
2023-05-13T04:42:59.818Z,53.33
2023-05-13T04:43:59.792Z,52.85
2023-05-13T04:44:59.803Z,55.59
2023-05-13T04:45:59.817Z,54.14
2023-05-13T04:46:59.767Z,56.07
2023-05-13T04:47:59.775Z,56.24
2023-05-13T04:48:59.778Z,56.24
2023-05-13T04:49:59.767Z,56.24
2023-05-13T04:50:59.741Z,56.40
2023-05-13T04:51:59.731Z,54.62
2023-05-13T04:52:59.721Z,54.46
2023-05-13T04:53:59.763Z,55.59
2023-05-13T04:54:59.707Z,54.95
2023-05-13T04:55:59.709Z,55.43
2023-05-13T04:56:59.687Z,55.91
2023-05-13T04:57:59.680Z,55.91
2023-05-13T04:58:59.703Z,55.43
2023-05-13T04:59:59.763Z,55.59
2023-05-13T05:00:59.670Z,56.07
2023-05-13T05:01:59.788Z,56.40
2023-05-13T05:02:59.716Z,56.56
2023-05-13T05:03:59.742Z,56.56
2023-05-13T05:04:59.613Z,58.33
2023-05-13T05:06:00.626Z,57.36
2023-05-13T05:06:59.603Z,57.52
2023-05-13T05:08:00.633Z,57.20
2023-05-13T05:08:59.636Z,58.17
2023-05-13T05:09:59.583Z,56.88
2023-05-13T05:10:59.581Z,56.07
2023-05-13T05:11:59.575Z,56.07
2023-05-13T05:12:59.663Z,56.07
2023-05-13T05:14:00.562Z,55.27
2023-05-13T05:14:59.550Z,54.62
2023-05-13T05:15:59.555Z,54.79
2023-05-13T05:16:59.569Z,54.62
2023-05-13T05:17:59.672Z,56.56
2023-05-13T05:18:59.540Z,55.43
2023-05-13T05:19:59.537Z,55.11
2023-05-13T05:21:01.784Z,55.11
2023-05-13T05:21:59.507Z,55.43
2023-05-13T05:22:59.520Z,54.46
2023-05-13T05:23:59.486Z,54.14
2023-05-13T05:24:59.473Z,54.46
2023-05-13T05:26:10.557Z,55.11
2023-05-13T05:27:01.498Z,54.95
2023-05-13T05:27:59.481Z,54.46
2023-05-13T05:28:59.445Z,55.43
2023-05-13T05:29:59.446Z,54.46
2023-05-13T05:30:59.440Z,54.46
2023-05-13T05:31:59.607Z,54.62
2023-05-13T05:32:59.457Z,55.11
2023-05-13T05:33:59.420Z,54.95
2023-05-13T05:34:59.415Z,54.62
2023-05-13T05:35:59.394Z,54.62
2023-05-13T05:36:59.406Z,54.79
2023-05-13T05:37:59.392Z,54.30
2023-05-13T05:38:59.365Z,54.95
2023-05-13T05:39:59.373Z,54.95
2023-05-13T05:40:59.392Z,56.24
2023-05-13T05:41:59.370Z,55.43
2023-05-13T05:42:59.337Z,54.46
2023-05-13T05:43:59.329Z,56.88
2023-05-13T05:45:31.254Z,54.14
2023-05-13T05:45:59.362Z,47.37
2023-05-13T05:46:59.313Z,39.64
2023-05-13T05:47:59.367Z,39.80
2023-05-13T05:48:59.302Z,40.28
2023-05-13T05:49:59.292Z,44.63
2023-05-13T05:50:59.297Z,43.99
2023-05-13T05:51:59.276Z,42.22
2023-05-13T05:52:59.305Z,43.02
2023-05-13T05:53:59.248Z,43.99
2023-05-13T05:54:59.268Z,43.99
2023-05-13T05:55:59.255Z,45.12
2023-05-13T05:56:59.229Z,41.09
2023-05-13T05:57:59.229Z,45.28
2023-05-13T05:58:59.228Z,41.73
2023-05-13T05:59:59.256Z,40.44
2023-05-13T06:00:59.230Z,40.61
2023-05-13T06:01:59.233Z,42.70
2023-05-13T06:02:59.235Z,45.28
2023-05-13T06:03:59.279Z,44.47
2023-05-13T06:04:59.186Z,43.02
2023-05-13T06:05:59.179Z,42.06
2023-05-13T06:06:59.202Z,43.83
2023-05-13T06:07:59.142Z,48.18
2023-05-13T06:08:59.144Z,41.09
2023-05-13T06:09:59.170Z,43.02
2023-05-13T06:10:59.154Z,42.54
2023-05-13T06:11:59.132Z,43.99
2023-05-13T06:12:59.120Z,42.70
2023-05-13T06:13:59.133Z,44.63
2023-05-13T06:14:59.113Z,42.86
2023-05-13T06:15:59.128Z,44.79
2023-05-13T06:16:59.079Z,46.41
2023-05-13T06:17:59.099Z,43.51
2023-05-13T06:18:59.147Z,43.99
2023-05-13T06:19:59.068Z,44.15
2023-05-13T06:20:59.071Z,45.12
2023-05-13T06:21:59.048Z,45.60
2023-05-13T06:22:59.044Z,46.89
2023-05-13T06:23:59.058Z,43.83
2023-05-13T06:24:59.018Z,40.12
2023-05-13T06:25:59.013Z,43.02
2023-05-13T06:26:59.010Z,41.57
2023-05-13T06:28:00.847Z,41.41
2023-05-13T06:28:59.026Z,40.12
2023-05-13T06:29:58.988Z,43.99
2023-05-13T06:30:58.991Z,39.96
2023-05-13T06:31:58.974Z,50.92
2023-05-13T06:33:02.033Z,42.06
2023-05-13T06:33:59.952Z,48.98
2023-05-13T06:34:59.960Z,44.63
2023-05-13T06:35:58.928Z,45.28
2023-05-13T06:36:58.928Z,45.76
2023-05-13T06:37:59.970Z,43.51
2023-05-13T06:38:58.906Z,44.63
2023-05-13T06:39:58.905Z,48.02
2023-05-13T06:40:58.895Z,48.50
2023-05-13T06:41:58.932Z,51.72
2023-05-13T06:42:58.910Z,49.79
2023-05-13T06:43:58.884Z,46.25
2023-05-13T06:44:58.874Z,43.02
2023-05-13T06:45:58.863Z,40.77
2023-05-13T06:46:58.996Z,44.47
2023-05-13T06:47:58.876Z,48.66
2023-05-13T06:48:58.839Z,51.72
2023-05-13T06:49:58.823Z,47.37
2023-05-13T06:50:58.813Z,42.06
2023-05-13T06:51:58.837Z,53.98
2023-05-13T06:52:58.797Z,41.09
2023-05-13T06:53:58.798Z,43.67
2023-05-13T06:54:58.796Z,46.41
2023-05-13T06:55:58.774Z,43.51
2023-05-13T06:56:58.810Z,48.50
2023-05-13T06:57:58.781Z,42.54
2023-05-13T06:58:58.758Z,47.70
2023-05-13T06:59:58.769Z,48.34
2023-05-13T07:00:58.820Z,43.83
2023-05-13T07:01:58.766Z,46.57
2023-05-13T07:02:58.761Z,45.44
2023-05-13T07:03:58.760Z,41.41
2023-05-13T07:04:58.710Z,46.08
2023-05-13T07:05:58.725Z,44.15
2023-05-13T07:06:58.697Z,44.15
2023-05-13T07:07:58.689Z,46.89
2023-05-13T07:08:58.697Z,45.76
2023-05-13T07:09:58.689Z,46.57
2023-05-13T07:10:58.707Z,47.70
2023-05-13T07:11:58.657Z,47.53
2023-05-13T07:12:58.651Z,49.95
2023-05-13T07:13:58.639Z,46.41
2023-05-13T07:14:58.660Z,42.38
2023-05-13T07:15:58.655Z,50.11
2023-05-13T07:16:58.646Z,48.18
2023-05-13T07:17:58.615Z,45.12
2023-05-13T07:18:58.632Z,53.66
2023-05-13T07:19:58.617Z,45.28
2023-05-13T07:20:58.633Z,47.21
2023-05-13T07:21:58.581Z,39.80
2023-05-13T07:22:58.589Z,45.12
2023-05-13T07:23:58.562Z,45.44
2023-05-13T07:24:58.601Z,48.50
2023-05-13T07:25:58.552Z,41.57
2023-05-13T07:26:58.555Z,49.95
2023-05-13T07:27:58.538Z,45.28
2023-05-13T07:28:58.522Z,47.70
2023-05-13T07:29:58.565Z,47.05
2023-05-13T07:30:58.558Z,40.61
2023-05-13T07:31:58.544Z,40.44
2023-05-13T07:32:58.539Z,49.15
2023-05-13T07:33:58.534Z,48.34
2023-05-13T07:34:58.499Z,46.73
2023-05-13T07:35:58.505Z,51.24
2023-05-13T07:36:58.472Z,49.95
2023-05-13T07:37:58.473Z,46.25
2023-05-13T07:38:58.672Z,47.21
2023-05-13T07:39:58.451Z,48.18
2023-05-13T07:40:58.420Z,49.95
2023-05-13T07:41:58.418Z,45.28
2023-05-13T07:42:58.409Z,45.76
2023-05-13T07:43:58.424Z,48.82
2023-05-13T07:44:58.396Z,46.73
2023-05-13T07:45:58.391Z,49.31
2023-05-13T07:46:58.436Z,47.05
2023-05-13T07:47:58.477Z,48.82
2023-05-13T07:48:58.393Z,52.05
2023-05-13T07:49:58.381Z,44.96
2023-05-13T07:50:58.351Z,48.34
2023-05-13T07:51:58.344Z,46.57
2023-05-13T07:52:58.362Z,47.70
2023-05-13T07:53:58.337Z,49.47
2023-05-13T07:54:58.316Z,45.92
2023-05-13T07:55:58.314Z,48.34
2023-05-13T07:56:58.299Z,43.51
2023-05-13T07:57:59.190Z,49.95
2023-05-13T07:58:58.282Z,48.34
2023-05-13T07:59:58.332Z,42.54
2023-05-13T08:00:58.311Z,51.08
2023-05-13T08:01:58.319Z,51.40
2023-05-13T08:02:58.444Z,48.82
2023-05-13T08:03:58.636Z,46.41
2023-05-13T08:04:58.347Z,48.34
2023-05-13T08:05:58.248Z,47.21
2023-05-13T08:06:58.251Z,45.76
2023-05-13T08:07:58.238Z,42.86
2023-05-13T08:08:58.234Z,46.41
2023-05-13T08:09:58.206Z,46.73
2023-05-13T08:10:58.241Z,46.57
2023-05-13T08:11:58.217Z,49.79
2023-05-13T08:12:58.188Z,52.37
2023-05-13T08:13:58.172Z,52.21
2023-05-13T08:14:58.163Z,51.40
2023-05-13T08:16:38.106Z,50.43
2023-05-13T08:16:58.163Z,53.01
2023-05-13T08:17:58.182Z,50.92
2023-05-13T08:18:58.165Z,51.72
2023-05-13T08:19:59.442Z,52.37
2023-05-13T08:20:58.268Z,49.15
2023-05-13T08:21:58.141Z,50.60
2023-05-13T08:22:58.112Z,48.50
2023-05-13T08:23:58.098Z,51.56
2023-05-13T08:24:58.091Z,50.76
2023-05-13T08:25:58.106Z,49.63
2023-05-13T08:26:58.074Z,46.57
2023-05-13T08:27:58.084Z,47.53
2023-05-13T08:28:58.050Z,49.31
2023-05-13T08:29:58.133Z,51.24
2023-05-13T08:30:58.081Z,46.08
2023-05-13T08:31:58.074Z,49.79
2023-05-13T08:32:58.037Z,48.34
2023-05-13T08:33:58.015Z,49.63
2023-05-13T08:34:58.043Z,49.31
2023-05-13T08:35:58.029Z,51.40
2023-05-13T08:36:57.994Z,51.24
2023-05-13T08:37:57.995Z,49.79
2023-05-13T08:38:57.979Z,51.40
2023-05-13T08:39:59.013Z,46.89
2023-05-13T08:40:58.036Z,51.24
2023-05-13T08:41:57.957Z,48.02
2023-05-13T08:42:57.949Z,51.24
2023-05-13T08:43:57.946Z,44.79
2023-05-13T08:44:57.964Z,54.95
2023-05-13T08:45:57.978Z,59.14
2023-05-13T08:46:57.928Z,62.20
2023-05-13T08:47:57.959Z,61.71
2023-05-13T08:48:57.918Z,59.14
2023-05-13T08:49:57.923Z,62.04
2023-05-13T08:50:57.926Z,53.66
2023-05-13T08:51:57.893Z,44.63
2023-05-13T08:52:57.885Z,53.66
2023-05-13T08:53:57.922Z,54.79
2023-05-13T08:54:57.889Z,45.76
2023-05-13T08:55:57.907Z,45.28
2023-05-13T08:56:57.848Z,53.17
2023-05-13T08:57:57.843Z,51.56
2023-05-13T08:58:57.859Z,49.15
2023-05-13T08:59:57.816Z,50.43
2023-05-13T09:00:57.868Z,46.08
2023-05-13T09:01:58.437Z,49.15
2023-05-13T09:02:57.893Z,46.89
2023-05-13T09:03:57.847Z,48.34
2023-05-13T09:04:57.822Z,51.08
2023-05-13T09:05:57.776Z,54.30
2023-05-13T09:06:57.763Z,50.60
2023-05-13T09:07:57.833Z,51.40
2023-05-13T09:08:57.811Z,51.88
2023-05-13T09:09:57.798Z,53.17
2023-05-13T09:10:57.752Z,51.08
2023-05-13T09:11:57.722Z,46.89
2023-05-13T09:12:57.746Z,49.15
2023-05-13T09:13:57.702Z,50.27
2023-05-13T09:14:57.702Z,53.01
2023-05-13T09:15:57.708Z,53.66
2023-05-13T09:16:57.698Z,51.56
2023-05-13T09:17:57.795Z,53.66
2023-05-13T09:18:57.899Z,52.21
2023-05-13T09:19:57.680Z,54.14
2023-05-13T09:20:57.664Z,49.31
2023-05-13T09:21:57.679Z,49.15
2023-05-13T09:22:57.667Z,48.34
2023-05-13T09:23:57.628Z,55.75
2023-05-13T09:24:57.620Z,51.40
2023-05-13T09:25:57.624Z,51.88
2023-05-13T09:26:57.635Z,52.69
2023-05-13T09:27:57.615Z,52.37
2023-05-13T09:28:57.589Z,50.43
2023-05-13T09:29:57.576Z,50.43
2023-05-13T09:30:57.612Z,54.14
2023-05-13T09:31:57.597Z,52.05
2023-05-13T09:32:57.579Z,52.85
2023-05-13T09:33:57.549Z,53.82
2023-05-13T09:34:57.543Z,49.63
2023-05-13T09:35:57.540Z,48.98
2023-05-13T09:36:57.566Z,51.24
2023-05-13T09:37:57.523Z,53.50
2023-05-13T09:38:57.507Z,52.21
2023-05-13T09:39:57.505Z,52.37
2023-05-13T09:40:57.525Z,52.53
2023-05-13T09:41:57.527Z,47.70
2023-05-13T09:42:57.501Z,53.33
2023-05-13T09:43:57.472Z,48.82
2023-05-13T09:44:57.468Z,44.31
2023-05-13T09:45:57.481Z,48.18
2023-05-13T09:46:57.509Z,53.50
2023-05-13T09:47:57.547Z,50.92
2023-05-13T09:48:57.434Z,49.63
2023-05-13T09:49:57.443Z,56.07
2023-05-13T09:50:57.455Z,47.70
2023-05-13T09:51:57.430Z,48.82
2023-05-13T09:52:57.429Z,46.08
2023-05-13T09:53:57.401Z,52.21
2023-05-13T09:54:57.434Z,50.92
2023-05-13T09:55:57.462Z,51.24
2023-05-13T09:56:57.393Z,48.50
2023-05-13T09:57:57.370Z,51.56
2023-05-13T09:58:57.402Z,48.02
2023-05-13T09:59:57.381Z,49.79
2023-05-13T10:00:57.406Z,48.50
2023-05-13T10:01:57.341Z,42.86
2023-05-13T10:02:57.364Z,47.86
2023-05-13T10:03:57.365Z,44.79
2023-05-13T10:04:57.350Z,48.18
2023-05-13T10:05:57.322Z,50.76
2023-05-13T10:06:58.309Z,45.12
2023-05-13T10:07:57.304Z,51.24
2023-05-13T10:08:58.244Z,50.27
2023-05-13T10:09:57.304Z,51.88
2023-05-13T10:10:57.277Z,53.66
2023-05-13T10:11:57.264Z,47.70
2023-05-13T10:12:57.257Z,50.92
2023-05-13T10:13:57.280Z,46.08
2023-05-13T10:14:57.272Z,44.96
2023-05-13T10:15:57.238Z,47.86
2023-05-13T10:16:57.329Z,47.70
2023-05-13T10:17:57.280Z,48.82
2023-05-13T10:18:57.401Z,46.08
2023-05-13T10:19:57.220Z,52.69
2023-05-13T10:20:57.217Z,52.21
2023-05-13T10:21:57.199Z,52.85
2023-05-13T10:22:57.250Z,47.21
2023-05-13T10:23:57.218Z,53.98
2023-05-13T10:24:57.163Z,51.72
2023-05-13T10:25:57.171Z,51.56
2023-05-13T10:26:57.162Z,47.86
2023-05-13T10:27:57.172Z,53.98
2023-05-13T10:28:57.152Z,50.27
2023-05-13T10:29:57.132Z,53.17
2023-05-13T10:30:57.181Z,48.50
2023-05-13T10:31:57.197Z,45.76
2023-05-13T10:32:57.156Z,52.37
2023-05-13T10:33:57.186Z,56.24
2023-05-13T10:34:57.102Z,54.95
2023-05-13T10:35:57.082Z,54.79
2023-05-13T10:36:57.076Z,54.95
2023-05-13T10:37:57.097Z,56.72
2023-05-13T10:38:57.092Z,53.98
2023-05-13T10:39:57.073Z,50.76
2023-05-13T10:40:57.061Z,54.30
2023-05-13T10:41:57.069Z,55.91
2023-05-13T10:42:57.051Z,52.53
2023-05-13T10:43:57.027Z,52.53
2023-05-13T10:44:57.009Z,52.69
2023-05-13T10:45:57.064Z,56.24
2023-05-13T10:46:57.034Z,52.37
2023-05-13T10:47:57.051Z,54.62
2023-05-13T10:48:56.993Z,47.86
2023-05-13T10:49:57.009Z,56.07
2023-05-13T10:50:56.978Z,47.86
2023-05-13T10:51:56.988Z,49.47
2023-05-13T10:52:56.958Z,50.76
2023-05-13T10:53:56.942Z,53.66
2023-05-13T10:54:56.930Z,53.01
2023-05-13T10:55:56.958Z,52.05
2023-05-13T10:56:56.957Z,53.82
2023-05-13T10:57:56.912Z,51.88
2023-05-13T10:58:56.904Z,50.43
2023-05-13T10:59:56.902Z,49.31
2023-05-13T11:00:56.917Z,50.60
2023-05-13T11:01:56.953Z,53.01
2023-05-13T11:02:56.927Z,48.66
2023-05-13T11:03:56.995Z,53.17
2023-05-13T11:04:57.868Z,49.95
2023-05-13T11:05:56.866Z,47.53
2023-05-13T11:06:56.862Z,47.05
2023-05-13T11:07:56.834Z,50.92
2023-05-13T11:08:56.824Z,46.57
2023-05-13T11:09:56.812Z,49.47
2023-05-13T11:10:56.840Z,46.57
2023-05-13T11:11:56.798Z,48.98
2023-05-13T11:12:56.793Z,48.82
2023-05-13T11:13:57.475Z,56.56
2023-05-13T11:14:56.795Z,53.01
2023-05-13T11:15:56.808Z,52.37
2023-05-13T11:16:56.779Z,51.56
2023-05-13T11:17:56.788Z,49.79
2023-05-13T11:18:56.753Z,52.05
2023-05-13T11:19:56.770Z,55.11
2023-05-13T11:20:56.767Z,55.11
2023-05-13T11:21:56.722Z,51.40
2023-05-13T11:22:56.708Z,52.53
2023-05-13T11:23:56.705Z,51.40
2023-05-13T11:24:56.725Z,49.95
2023-05-13T11:25:56.716Z,46.89
2023-05-13T11:26:56.719Z,48.82
2023-05-13T11:27:56.672Z,46.89
2023-05-13T11:28:56.682Z,50.76
2023-05-13T11:29:56.682Z,51.72
2023-05-13T11:30:56.663Z,47.86
2023-05-13T11:31:58.557Z,51.40
2023-05-13T11:32:57.024Z,47.70
2023-05-13T11:33:56.627Z,46.89
2023-05-13T11:34:56.646Z,54.14
2023-05-13T11:35:56.623Z,56.88
2023-05-13T11:36:56.609Z,53.50
2023-05-13T11:37:58.352Z,51.72
2023-05-13T11:38:56.615Z,50.76
2023-05-13T11:39:56.610Z,48.50
2023-05-13T11:40:56.589Z,44.79
2023-05-13T11:41:56.594Z,50.76
2023-05-13T11:42:56.604Z,53.50
2023-05-13T11:43:56.586Z,53.98
2023-05-13T11:47:29.660Z,52.37
2023-05-13T11:48:22.507Z,50.92
2023-05-13T11:49:22.506Z,53.01
2023-05-13T11:50:23.607Z,49.95
2023-05-13T11:51:23.630Z,56.40
2023-05-13T11:52:23.596Z,52.21
2023-05-13T11:53:23.628Z,51.40
2023-05-13T11:54:23.576Z,46.57
2023-05-13T11:55:23.677Z,52.85
2023-05-13T11:56:23.569Z,46.73
2023-05-13T11:57:23.641Z,53.33
2023-05-13T11:58:23.584Z,48.18
2023-05-13T11:59:23.578Z,52.05
2023-05-13T12:00:23.536Z,51.24
2023-05-13T12:01:23.544Z,54.79
2023-05-13T12:02:23.615Z,49.15
2023-05-13T12:03:23.586Z,51.40
2023-05-13T12:04:23.509Z,51.56
2023-05-13T12:05:24.031Z,53.50
2023-05-13T12:06:23.500Z,52.21
2023-05-13T12:07:23.509Z,50.11
2023-05-13T12:08:23.903Z,55.43
2023-05-13T12:09:24.535Z,50.27
2023-05-13T12:10:23.464Z,53.01
2023-05-13T12:11:23.466Z,47.21
2023-05-13T12:12:23.483Z,49.95
2023-05-13T12:13:24.440Z,47.70
2023-05-13T12:14:23.933Z,50.92
2023-05-13T12:15:23.607Z,54.46
2023-05-13T12:16:23.478Z,52.85
2023-05-13T12:17:23.471Z,51.88
2023-05-13T12:18:23.480Z,55.11
2023-05-13T12:19:23.393Z,54.95
2023-05-13T12:20:23.378Z,48.34
2023-05-13T12:21:23.409Z,55.27
2023-05-13T12:22:23.370Z,54.62
2023-05-13T12:23:23.393Z,52.05
2023-05-13T12:24:23.357Z,51.56
2023-05-13T12:25:23.470Z,50.27
2023-05-13T12:26:23.381Z,49.31
2023-05-13T12:27:23.328Z,49.63
2023-05-13T12:28:23.329Z,50.27
2023-05-13T12:29:23.322Z,55.59
2023-05-13T12:30:23.318Z,50.92
2023-05-13T12:31:23.381Z,52.21
2023-05-13T12:32:23.295Z,48.66
2023-05-13T12:33:24.279Z,50.76
2023-05-13T12:34:23.276Z,47.05
2023-05-13T12:35:23.519Z,57.04
2023-05-13T12:36:23.349Z,51.88
2023-05-13T12:37:23.257Z,45.60
2023-05-13T12:38:23.248Z,53.33
2023-05-13T12:39:23.255Z,49.31
2023-05-13T12:40:23.276Z,51.72
2023-05-13T12:41:23.225Z,49.95
2023-05-13T12:42:23.224Z,50.11
2023-05-13T12:43:23.225Z,54.46
2023-05-13T12:44:23.204Z,54.95
2023-05-13T12:45:23.530Z,47.53
2023-05-13T12:46:23.228Z,49.79
2023-05-13T12:47:23.170Z,53.50
2023-05-13T12:48:23.180Z,48.82
2023-05-13T12:49:23.198Z,51.72
2023-05-13T12:50:23.182Z,50.11
2023-05-13T12:51:23.140Z,51.72
2023-05-13T12:52:23.140Z,55.91
2023-05-13T12:53:23.128Z,50.11
2023-05-13T12:54:23.143Z,49.31